DAUH

Oued Irara Airport

Hassi Messaoud, Algeria
METAR DAUH 221430Z 02007KT 9999 SCT040 FEW100 35/15 Q1017
Observed Flight Rules
Sep-22 @ 14:30 UTC (30 minutes ago) Visual Flight Rules
Wind Visibility Clouds
20° at 7 knots 10,000+ meters
Temperatures Readings
Current 35°C / 95°F
Dewpoint 15°C / 59°F
Humidity 30%
Altimeter 30.03" Hg
Pressure 1017 hPa
Elevation 142
METAR DAUH 221430Z 02007KT 9999 SCT040 FEW100 35/15 Q1017
Observed Flight Rules
Sep-22 @ 14:30 UTC
(30 minutes ago)
VFR
Wind Visibility
20° at 7 knots 10,000+ meters
Clouds
Temperature Dewpoint
35°C / 95°F 15°C / 59°F
Humidity Altimeter Pressure
30% 30.03" Hg 1017 hPa